sensor_id;sensor_type;location;lat;lon;timestamp;pressure;altitude;pressure_sealevel;temperature;humidity
9784;BME280;4931;44.874;-1.092;2023-03-01T00:01:48;102133.13;;;1.18;100.00
9784;BME280;4931;44.874;-1.092;2023-03-01T00:04:13;102125.84;;;1.18;100.00
9784;BME280;4931;44.874;-1.092;2023-03-01T00:06:39;102135.84;;;1.18;100.00
9784;BME280;4931;44.874;-1.092;2023-03-01T00:09:05;102125.84;;;1.03;100.00
9784;BME280;4931;44.874;-1.092;2023-03-01T00:11:32;102128.31;;;0.90;100.00
9784;BME280;4931;44.874;-1.092;2023-03-01T00:14:02;102128.31;;;0.90;100.00
9784;BME280;4931;44.874;-1.092;2023-03-01T00:16:33;102127.06;;;0.77;100.00
9784;BME280;4931;44.874;-1.092;2023-03-01T00:18:59;102130.91;;;0.83;100.00
9784;BME280;4931;44.874;-1.092;2023-03-01T00:21:25;102125.41;;;0.76;100.00
9784;BME280;4931;44.874;-1.092;2023-03-01T00:23:52;102124.72;;;0.74;100.00
9784;BME280;4931;44.874;-1.092;2023-03-01T00:26:18;102122.13;;;0.58;100.00
9784;BME280;4931;44.874;-1.092;2023-03-01T00:28:45;102120.47;;;0.57;100.00
9784;BME280;4931;44.874;-1.092;2023-03-01T00:31:14;102121.91;;;0.44;100.00
9784;BME280;4931;44.874;-1.092;2023-03-01T00:33:41;102121.91;;;0.44;100.00
9784;BME280;4931;44.874;-1.092;2023-03-01T00:36:07;102115.88;;;0.34;100.00
9784;BME280;4931;44.874;-1.092;2023-03-01T00:38:40;102117.56;;;0.35;100.00
9784;BME280;4931;44.874;-1.092;2023-03-01T00:41:08;102122.72;;;0.22;100.00
9784;BME280;4931;44.874;-1.092;2023-03-01T00:43:34;102114.31;;;0.16;100.00
9784;BME280;4931;44.874;-1.092;2023-03-01T00:46:07;102108.53;;;0.20;100.00
9784;BME280;4931;44.874;-1.092;2023-03-01T00:48:33;102109.97;;;0.07;100.00
9784;BME280;4931;44.874;-1.092;2023-03-01T00:51:13;102112.00;;;0.05;100.00
9784;BME280;4931;44.874;-1.092;2023-03-01T00:53:40;102115.00;;;0.10;100.00
9784;BME280;4931;44.874;-1.092;2023-03-01T00:56:07;102110.47;;;0.11;100.00
9784;BME280;4931;44.874;-1.092;2023-03-01T00:58:34;102109.09;;;0.15;100.00
9784;BME280;4931;44.874;-1.092;2023-03-01T01:01:00;102105.25;;;0.09;100.00
9784;BME280;4931;44.874;-1.092;2023-03-01T01:03:26;102106.13;;;0.02;100.00
9784;BME280;4931;44.874;-1.092;2023-03-01T01:05:52;102118.13;;;-0.01;100.00
9784;BME280;4931;44.874;-1.092;2023-03-01T01:08:19;102107.34;;;-0.09;100.00
9784;BME280;4931;44.874;-1.092;2023-03-01T01:10:46;102113.59;;;-0.09;100.00
9784;BME280;4931;44.874;-1.092;2023-03-01T01:13:12;102112.97;;;-0.19;100.00
9784;BME280;4931;44.874;-1.092;2023-03-01T01:15:38;102110.50;;;-0.29;100.00
9784;BME280;4931;44.874;-1.092;2023-03-01T01:18:04;102113.66;;;-0.25;100.00
9784;BME280;4931;44.874;-1.092;2023-03-01T01:20:29;102116.72;;;-0.28;100.00
9784;BME280;4931;44.874;-1.092;2023-03-01T01:22:55;102114.19;;;-0.30;100.00
9784;BME280;4931;44.874;-1.092;2023-03-01T01:25:20;102110.50;;;-0.29;100.00
9784;BME280;4931;44.874;-1.092;2023-03-01T01:27:46;102114.84;;;-0.20;100.00
9784;BME280;4931;44.874;-1.092;2023-03-01T01:30:12;102121.56;;;-0.15;100.00
9784;BME280;4931;44.874;-1.092;2023-03-01T01:32:38;102112.78;;;-0.18;100.00
9784;BME280;4931;44.874;-1.092;2023-03-01T01:35:04;102104.38;;;-0.14;100.00
9784;BME280;4931;44.874;-1.092;2023-03-01T01:37:30;102085.00;;;-0.18;100.00
9784;BME280;4931;44.874;-1.092;2023-03-01T01:39:58;102088.84;;;-0.12;100.00
9784;BME280;4931;44.874;-1.092;2023-03-01T01:42:25;102092.53;;;-0.13;100.00
9784;BME280;4931;44.874;-1.092;2023-03-01T01:45:30;102086.97;;;-0.12;100.00
9784;BME280;4931;44.874;-1.092;2023-03-01T01:48:06;102099.72;;;-0.29;100.00
9784;BME280;4931;44.874;-1.092;2023-03-01T01:50:33;102095.28;;;-0.22;100.00
9784;BME280;4931;44.874;-1.092;2023-03-01T01:53:09;102084.84;;;-0.25;100.00
9784;BME280;4931;44.874;-1.092;2023-03-01T01:55:42;102086.69;;;-0.25;100.00
9784;BME280;4931;44.874;-1.092;2023-03-01T01:58:11;102088.28;;;-0.39;100.00
9784;BME280;4931;44.874;-1.092;2023-03-01T02:00:38;102080.56;;;-0.51;100.00
9784;BME280;4931;44.874;-1.092;2023-03-01T02:03:14;102076.84;;;-0.49;100.00
9784;BME280;4931;44.874;-1.092;2023-03-01T02:06:06;102074.16;;;-0.49;100.00
9784;BME280;4931;44.874;-1.092;2023-03-01T02:08:38;102066.41;;;-0.53;100.00
9784;BME280;4931;44.874;-1.092;2023-03-01T02:11:06;102064.03;;;-0.47;100.00
9784;BME280;4931;44.874;-1.092;2023-03-01T02:13:33;102071.47;;;-0.49;100.00
9784;BME280;4931;44.874;-1.092;2023-03-01T02:16:03;102064.03;;;-0.47;100.00
9784;BME280;4931;44.874;-1.092;2023-03-01T02:18:29;102066.75;;;-0.56;100.00
9784;BME280;4931;44.874;-1.092;2023-03-01T02:23:31;102059.00;;;-0.51;100.00
9784;BME280;4931;44.874;-1.092;2023-03-01T02:26:11;102057.66;;;-0.55;100.00
9784;BME280;4931;44.874;-1.092;2023-03-01T02:28:44;102059.03;;;-0.59;100.00
9784;BME280;4931;44.874;-1.092;2023-03-01T02:31:14;102058.56;;;-0.71;100.00
9784;BME280;4931;44.874;-1.092;2023-03-01T02:34:00;102046.91;;;-0.71;100.00
9784;BME280;4931;44.874;-1.092;2023-03-01T02:36:35;102046.25;;;-0.65;100.00
9784;BME280;4931;44.874;-1.092;2023-03-01T02:39:03;102047.06;;;-0.64;100.00
9784;BME280;4931;44.874;-1.092;2023-03-01T02:41:33;102047.56;;;-0.61;100.00
9784;BME280;4931;44.874;-1.092;2023-03-01T02:44:00;102038.97;;;-0.56;100.00
9784;BME280;4931;44.874;-1.092;2023-03-01T02:46:26;102033.09;;;-0.60;100.00
9784;BME280;4931;44.874;-1.092;2023-03-01T02:48:54;102036.47;;;-0.58;100.00
9784;BME280;4931;44.874;-1.092;2023-03-01T02:56:20;102026.38;;;-0.64;100.00
9784;BME280;4931;44.874;-1.092;2023-03-01T02:58:46;102019.66;;;-0.68;100.00
9784;BME280;4931;44.874;-1.092;2023-03-01T03:01:16;102014.25;;;-0.68;100.00
9784;BME280;4931;44.874;-1.092;2023-03-01T03:03:42;102018.59;;;-0.67;100.00
9784;BME280;4931;44.874;-1.092;2023-03-01T03:06:07;102007.81;;;-0.59;100.00
9784;BME280;4931;44.874;-1.092;2023-03-01T03:08:33;102002.41;;;-0.59;100.00
9784;BME280;4931;44.874;-1.092;2023-03-01T03:10:59;102005.75;;;-0.57;100.00
9784;BME280;4931;44.874;-1.092;2023-03-01T03:13:24;101998.56;;;-0.64;100.00
9784;BME280;4931;44.874;-1.092;2023-03-01T03:15:56;102006.81;;;-0.66;100.00
9784;BME280;4931;44.874;-1.092;2023-03-01T03:18:23;102003.34;;;-0.75;100.00
9784;BME280;4931;44.874;-1.092;2023-03-01T03:20:52;101999.75;;;-0.67;100.00
9784;BME280;4931;44.874;-1.092;2023-03-01T03:23:21;102002.75;;;-0.62;100.00
9784;BME280;4931;44.874;-1.092;2023-03-01T03:25:50;102004.09;;;-0.58;100.00
9784;BME280;4931;44.874;-1.092;2023-03-01T03:28:16;102003.38;;;-0.52;100.00
9784;BME280;4931;44.874;-1.092;2023-03-01T03:30:43;102000.03;;;-0.54;100.00
9784;BME280;4931;44.874;-1.092;2023-03-01T03:33:10;101997.34;;;-0.54;100.00
9784;BME280;4931;44.874;-1.092;2023-03-01T03:35:54;101999.53;;;-0.57;100.00
9784;BME280;4931;44.874;-1.092;2023-03-01T03:38:20;101994.16;;;-0.57;100.00
9784;BME280;4931;44.874;-1.092;2023-03-01T03:40:49;101991.47;;;-0.57;100.00
9784;BME280;4931;44.874;-1.092;2023-03-01T03:43:17;101999.53;;;-0.57;100.00
9784;BME280;4931;44.874;-1.092;2023-03-01T03:45:44;101997.03;;;-0.59;100.00
9784;BME280;4931;44.874;-1.092;2023-03-01T03:48:10;101993.00;;;-0.63;100.00
9784;BME280;4931;44.874;-1.092;2023-03-01T03:50:38;101987.94;;;-0.58;100.00
9784;BME280;4931;44.874;-1.092;2023-03-01T03:53:06;101988.75;;;-0.57;100.00
9784;BME280;4931;44.874;-1.092;2023-03-01T03:55:32;101985.88;;;-0.56;100.00
9784;BME280;4931;44.874;-1.092;2023-03-01T03:57:59;101988.94;;;-0.59;100.00
9784;BME280;4931;44.874;-1.092;2023-03-01T04:00:35;101988.75;;;-0.57;100.00
9784;BME280;4931;44.874;-1.092;2023-03-01T04:03:01;101982.50;;;-0.49;100.00
9784;BME280;4931;44.874;-1.092;2023-03-01T04:05:27;101985.69;;;-0.46;100.00
9784;BME280;4931;44.874;-1.092;2023-03-01T04:07:54;101983.28;;;-0.41;100.00
9784;BME280;4931;44.874;-1.092;2023-03-01T04:10:41;101983.81;;;-0.45;100.00
9784;BME280;4931;44.874;-1.092;2023-03-01T04:13:10;101981.78;;;-0.43;100.00
9784;BME280;4931;44.874;-1.092;2023-03-01T04:15:36;101982.56;;;-0.35;100.00
9784;BME280;4931;44.874;-1.092;2023-03-01T04:18:02;101977.31;;;-0.28;100.00
9784;BME280;4931;44.874;-1.092;2023-03-01T04:20:30;101983.38;;;-0.26;100.00
9784;BME280;4931;44.874;-1.092;2023-03-01T04:23:05;101971.56;;;-0.25;100.00
9784;BME280;4931;44.874;-1.092;2023-03-01T04:25:42;101984.75;;;-0.30;100.00
9784;BME280;4931;44.874;-1.092;2023-03-01T04:28:10;101986.25;;;-0.27;100.00
9784;BME280;4931;44.874;-1.092;2023-03-01T04:30:37;101975.28;;;-0.26;100.00
9784;BME280;4931;44.874;-1.092;2023-03-01T04:33:07;101985.38;;;-0.20;100.00
9784;BME280;4931;44.874;-1.092;2023-03-01T04:35:35;101988.72;;;-0.18;100.00
9784;BME280;4931;44.874;-1.092;2023-03-01T04:38:01;101983.31;;;-0.18;100.00
9784;BME280;4931;44.874;-1.092;2023-03-01T04:40:26;101982.00;;;-0.22;100.00
9784;BME280;4931;44.874;-1.092;2023-03-01T04:42:52;101990.59;;;-0.26;100.00
9784;BME280;4931;44.874;-1.092;2023-03-01T04:45:18;101978.16;;;-0.27;100.00
9784;BME280;4931;44.874;-1.092;2023-03-01T04:47:45;101976.97;;;-0.25;100.00
9784;BME280;4931;44.874;-1.092;2023-03-01T04:50:15;101977.63;;;-0.23;100.00
9784;BME280;4931;44.874;-1.092;2023-03-01T04:52:41;101984.38;;;-0.27;100.00
9784;BME280;4931;44.874;-1.092;2023-03-01T04:55:07;101983.38;;;-0.26;100.00
9784;BME280;4931;44.874;-1.092;2023-03-01T04:57:33;101975.97;;;-0.32;100.00
9784;BME280;4931;44.874;-1.092;2023-03-01T04:59:59;101970.59;;;-0.32;100.00
9784;BME280;4931;44.874;-1.092;2023-03-01T05:02:25;101973.59;;;-0.27;100.00
9784;BME280;4931;44.874;-1.092;2023-03-01T05:04:50;101968.88;;;-0.25;100.00
9784;BME280;4931;44.874;-1.092;2023-03-01T05:07:16;101976.28;;;-0.27;100.00
9784;BME280;4931;44.874;-1.092;2023-03-01T05:09:47;101967.56;;;-0.29;100.00
9784;BME280;4931;44.874;-1.092;2023-03-01T05:12:13;101978.06;;;-0.42;100.00
9784;BME280;4931;44.874;-1.092;2023-03-01T05:14:39;101977.72;;;-0.39;100.00
9784;BME280;4931;44.874;-1.092;2023-03-01T05:17:05;101981.44;;;-0.40;100.00
9784;BME280;4931;44.874;-1.092;2023-03-01T05:19:31;101974.66;;;-0.36;100.00
9784;BME280;4931;44.874;-1.092;2023-03-01T05:21:58;101983.00;;;-0.46;100.00
9784;BME280;4931;44.874;-1.092;2023-03-01T05:24:28;101979.25;;;-0.45;100.00
9784;BME280;4931;44.874;-1.092;2023-03-01T05:26:53;101979.22;;;-0.37;100.00
9784;BME280;4931;44.874;-1.092;2023-03-01T05:29:20;101980.25;;;-0.38;100.00
9784;BME280;4931;44.874;-1.092;2023-03-01T05:31:53;101982.44;;;-0.41;100.00
9784;BME280;4931;44.874;-1.092;2023-03-01T05:34:22;101974.41;;;-0.49;100.00
9784;BME280;4931;44.874;-1.092;2023-03-01T05:36:48;101982.13;;;-0.46;100.00
9784;BME280;4931;44.874;-1.092;2023-03-01T05:39:28;101985.72;;;-0.54;100.00
9784;BME280;4931;44.874;-1.092;2023-03-01T05:41:58;101981.50;;;-0.48;100.00
9784;BME280;4931;44.874;-1.092;2023-03-01T05:44:25;101975.72;;;-0.45;100.00
9784;BME280;4931;44.874;-1.092;2023-03-01T05:46:51;101970.34;;;-0.45;100.00
9784;BME280;4931;44.874;-1.092;2023-03-01T05:49:17;101974.03;;;-0.46;100.00
9784;BME280;4931;44.874;-1.092;2023-03-01T05:51:47;101970.66;;;-0.40;100.00
9784;BME280;4931;44.874;-1.092;2023-03-01T05:54:14;101968.66;;;-0.46;100.00
9784;BME280;4931;44.874;-1.092;2023-03-01T05:56:39;101969.50;;;-0.46;100.00
9784;BME280;4931;44.874;-1.092;2023-03-01T05:59:05;101974.03;;;-0.46;100.00
9784;BME280;4931;44.874;-1.092;2023-03-01T06:01:32;101971.72;;;-0.49;100.00
9784;BME280;4931;44.874;-1.092;2023-03-01T06:03:58;101968.38;;;-0.60;100.00
9784;BME280;4931;44.874;-1.092;2023-03-01T06:06:24;101971.44;;;-0.63;100.00
9784;BME280;4931;44.874;-1.092;2023-03-01T06:08:50;101973.47;;;-0.65;100.00
9784;BME280;4931;44.874;-1.092;2023-03-01T06:11:16;101970.41;;;-0.62;100.00
9784;BME280;4931;44.874;-1.092;2023-03-01T06:13:43;101971.44;;;-0.63;100.00
9784;BME280;4931;44.874;-1.092;2023-03-01T06:16:09;101963.06;;;-0.76;100.00
9784;BME280;4931;44.874;-1.092;2023-03-01T06:18:35;101964.75;;;-0.75;100.00
9784;BME280;4931;44.874;-1.092;2023-03-01T06:21:01;101964.09;;;-0.77;100.00
9784;BME280;4931;44.874;-1.092;2023-03-01T06:23:27;101965.94;;;-0.78;100.00
9784;BME280;4931;44.874;-1.092;2023-03-01T06:25:53;101959.91;;;-0.88;100.00
9784;BME280;4931;44.874;-1.092;2023-03-01T06:28:18;101964.09;;;-0.86;100.00
9784;BME280;4931;44.874;-1.092;2023-03-01T06:30:44;101968.22;;;-0.98;100.00
9784;BME280;4931;44.874;-1.092;2023-03-01T06:33:10;101967.53;;;-1.00;100.00
9784;BME280;4931;44.874;-1.092;2023-03-01T06:35:35;101972.44;;;-1.04;100.00
9784;BME280;4931;44.874;-1.092;2023-03-01T06:38:02;101974.63;;;-1.07;100.00
9784;BME280;4931;44.874;-1.092;2023-03-01T06:40:28;101976.31;;;-1.14;100.00
9784;BME280;4931;44.874;-1.092;2023-03-01T06:42:54;101980.75;;;-1.38;100.00
9784;BME280;4931;44.874;-1.092;2023-03-01T06:45:20;101981.06;;;-1.25;100.00
9784;BME280;4931;44.874;-1.092;2023-03-01T06:47:47;101985.47;;;-1.32;100.00
9784;BME280;4931;44.874;-1.092;2023-03-01T06:50:13;101982.09;;;-1.34;100.00
9784;BME280;4931;44.874;-1.092;2023-03-01T06:52:39;101977.19;;;-1.30;100.00
9784;BME280;4931;44.874;-1.092;2023-03-01T06:55:06;101981.25;;;-1.35;100.00
9784;BME280;4931;44.874;-1.092;2023-03-01T06:57:32;101978.75;;;-1.36;100.00
9784;BME280;4931;44.874;-1.092;2023-03-01T06:59:57;101980.06;;;-1.32;100.00
9784;BME280;4931;44.874;-1.092;2023-03-01T07:02:23;101982.25;;;-1.36;100.00
9784;BME280;4931;44.874;-1.092;2023-03-01T07:04:49;101983.78;;;-1.41;100.00
9784;BME280;4931;44.874;-1.092;2023-03-01T07:07:15;101986.81;;;-1.36;100.00
9784;BME280;4931;44.874;-1.092;2023-03-01T07:09:46;101987.81;;;-1.37;100.00
9784;BME280;4931;44.874;-1.092;2023-03-01T07:12:12;101988.50;;;-1.43;100.00
9784;BME280;4931;44.874;-1.092;2023-03-01T07:14:37;101987.47;;;-1.34;100.00
9784;BME280;4931;44.874;-1.092;2023-03-01T07:17:03;101992.00;;;-1.26;100.00
9784;BME280;4931;44.874;-1.092;2023-03-01T07:19:29;101991.66;;;-1.31;100.00
9784;BME280;4931;44.874;-1.092;2023-03-01T07:21:54;101998.91;;;-1.24;100.00
9784;BME280;4931;44.874;-1.092;2023-03-01T07:24:21;101997.88;;;-1.14;100.00
9784;BME280;4931;44.874;-1.092;2023-03-01T07:26:51;101991.47;;;-1.13;100.00
9784;BME280;4931;44.874;-1.092;2023-03-01T07:29:17;101992.63;;;-0.99;100.00
9784;BME280;4931;44.874;-1.092;2023-03-01T07:31:43;101990.59;;;-0.89;100.00
9784;BME280;4931;44.874;-1.092;2023-03-01T07:34:09;101995.44;;;-0.85;100.00
9784;BME280;4931;44.874;-1.092;2023-03-01T07:36:36;101987.31;;;-0.68;100.00
9784;BME280;4931;44.874;-1.092;2023-03-01T07:39:02;101986.25;;;-0.59;100.00
9784;BME280;4931;44.874;-1.092;2023-03-01T07:41:28;101993.94;;;-0.47;100.00
9784;BME280;4931;44.874;-1.092;2023-03-01T07:43:54;101987.00;;;-0.42;100.00
9784;BME280;4931;44.874;-1.092;2023-03-01T07:46:20;101987.78;;;-0.33;100.00
9784;BME280;4931;44.874;-1.092;2023-03-01T07:48:45;101995.78;;;-0.17;100.00
9784;BME280;4931;44.874;-1.092;2023-03-01T07:51:11;101988.63;;;-0.01;100.00
9784;BME280;4931;44.874;-1.092;2023-03-01T07:53:37;101988.25;;;0.25;100.00
9784;BME280;4931;44.874;-1.092;2023-03-01T07:56:08;101990.19;;;0.55;100.00
9784;BME280;4931;44.874;-1.092;2023-03-01T07:58:36;101988.00;;;0.88;100.00
9784;BME280;4931;44.874;-1.092;2023-03-01T08:01:06;101990.59;;;1.11;100.00
9784;BME280;4931;44.874;-1.092;2023-03-01T08:03:32;101998.44;;;1.36;100.00
9784;BME280;4931;44.874;-1.092;2023-03-01T08:06:03;101988.59;;;1.65;100.00
9784;BME280;4931;44.874;-1.092;2023-03-01T08:08:29;101977.91;;;1.78;100.00
9784;BME280;4931;44.874;-1.092;2023-03-01T08:11:02;101983.84;;;1.89;100.00
9784;BME280;4931;44.874;-1.092;2023-03-01T08:13:28;101983.63;;;2.05;100.00
9784;BME280;4931;44.874;-1.092;2023-03-01T08:15:54;101986.97;;;2.29;100.00
9784;BME280;4931;44.874;-1.092;2023-03-01T08:18:20;101974.91;;;2.60;100.00
9784;BME280;4931;44.874;-1.092;2023-03-01T08:20:47;101975.66;;;2.75;100.00
9784;BME280;4931;44.874;-1.092;2023-03-01T08:23:13;101981.41;;;2.94;100.00
9784;BME280;4931;44.874;-1.092;2023-03-01T08:25:38;101982.91;;;3.03;100.00
9784;BME280;4931;44.874;-1.092;2023-03-01T08:28:04;101977.69;;;3.02;100.00
9784;BME280;4931;44.874;-1.092;2023-03-01T08:30:30;101975.50;;;3.19;100.00
9784;BME280;4931;44.874;-1.092;2023-03-01T08:32:55;101978.63;;;3.15;100.00
9784;BME280;4931;44.874;-1.092;2023-03-01T08:35:21;101975.72;;;3.17;100.00
9784;BME280;4931;44.874;-1.092;2023-03-01T08:37:47;101971.09;;;3.18;100.00
9784;BME280;4931;44.874;-1.092;2023-03-01T08:40:13;101974.09;;;3.29;100.00
9784;BME280;4931;44.874;-1.092;2023-03-01T08:42:41;101967.03;;;3.35;100.00
9784;BME280;4931;44.874;-1.092;2023-03-01T08:45:08;101962.91;;;3.53;100.00
9784;BME280;4931;44.874;-1.092;2023-03-01T08:47:34;101962.56;;;3.69;100.00
9784;BME280;4931;44.874;-1.092;2023-03-01T08:50:00;101960.88;;;3.68;100.00
9784;BME280;4931;44.874;-1.092;2023-03-01T08:52:26;101950.94;;;3.89;100.00
9784;BME280;4931;44.874;-1.092;2023-03-01T08:54:52;101959.53;;;4.26;100.00
9784;BME280;4931;44.874;-1.092;2023-03-01T08:57:18;101954.72;;;4.48;100.00
9784;BME280;4931;44.874;-1.092;2023-03-01T08:59:43;101946.78;;;4.60;100.00
9784;BME280;4931;44.874;-1.092;2023-03-01T09:02:14;101949.50;;;4.60;100.00
9784;BME280;4931;44.874;-1.092;2023-03-01T09:04:41;101944.47;;;4.70;100.00
9784;BME280;4931;44.874;-1.092;2023-03-01T09:07:07;101935.84;;;4.87;100.00
9784;BME280;4931;44.874;-1.092;2023-03-01T09:09:33;101944.63;;;4.89;100.00
9784;BME280;4931;44.874;-1.092;2023-03-01T09:11:58;101940.84;;;5.03;100.00
9784;BME280;4931;44.874;-1.092;2023-03-01T09:14:24;101935.38;;;5.03;100.00
9784;BME280;4931;44.874;-1.092;2023-03-01T09:16:49;101934.94;;;5.06;100.00
9784;BME280;4931;44.874;-1.092;2023-03-01T09:19:16;101925.94;;;5.12;100.00
9784;BME280;4931;44.874;-1.092;2023-03-01T09:21:42;101929.41;;;5.33;100.00
9784;BME280;4931;44.874;-1.092;2023-03-01T09:24:20;101924.91;;;5.13;100.00
9784;BME280;4931;44.874;-1.092;2023-03-01T09:26:47;101935.00;;;5.52;100.00
9784;BME280;4931;44.874;-1.092;2023-03-01T09:29:13;101932.75;;;5.35;100.00
9784;BME280;4931;44.874;-1.092;2023-03-01T09:31:40;101922.69;;;5.36;100.00
9784;BME280;4931;44.874;-1.092;2023-03-01T09:34:06;101913.38;;;5.57;100.00
9784;BME280;4931;44.874;-1.092;2023-03-01T09:36:33;101912.53;;;5.56;100.00
9784;BME280;4931;44.874;-1.092;2023-03-01T09:39:02;101917.22;;;5.49;100.00
9784;BME280;4931;44.874;-1.092;2023-03-01T09:44:03;101911.66;;;6.01;100.00
9784;BME280;4931;44.874;-1.092;2023-03-01T09:46:42;101901.28;;;6.17;100.00
9784;BME280;4931;44.874;-1.092;2023-03-01T09:49:27;101899.28;;;6.30;100.00
9784;BME280;4931;44.874;-1.092;2023-03-01T09:54:49;101895.31;;;6.26;100.00
9784;BME280;4931;44.874;-1.092;2023-03-01T09:57:49;101891.91;;;6.31;100.00
9784;BME280;4931;44.874;-1.092;2023-03-01T10:00:37;101890.19;;;6.11;100.00
9784;BME280;4931;44.874;-1.092;2023-03-01T10:03:43;101877.41;;;6.37;100.00
9784;BME280;4931;44.874;-1.092;2023-03-01T10:06:15;101873.72;;;6.50;100.00
9784;BME280;4931;44.874;-1.092;2023-03-01T10:09:02;101877.72;;;6.47;100.00
9784;BME280;4931;44.874;-1.092;2023-03-01T10:11:39;101878.69;;;6.35;100.00
9784;BME280;4931;44.874;-1.092;2023-03-01T10:14:31;101875.28;;;6.39;100.00
9784;BME280;4931;44.874;-1.092;2023-03-01T10:19:46;101872.28;;;7.03;100.00
9784;BME280;4931;44.874;-1.092;2023-03-01T10:24:50;101871.06;;;7.18;100.00
9784;BME280;4931;44.874;-1.092;2023-03-01T10:27:25;101869.56;;;7.03;100.00
9784;BME280;4931;44.874;-1.092;2023-03-01T10:32:20;101858.41;;;7.35;100.00
9784;BME280;4931;44.874;-1.092;2023-03-01T10:34:47;101855.31;;;7.62;100.00
9784;BME280;4931;44.874;-1.092;2023-03-01T10:37:20;101866.38;;;7.67;100.00
9784;BME280;4931;44.874;-1.092;2023-03-01T10:40:17;101867.22;;;7.37;100.00
9784;BME280;4931;44.874;-1.092;2023-03-01T10:42:48;101862.50;;;7.44;100.00
9784;BME280;4931;44.874;-1.092;2023-03-01T10:45:35;101855.03;;;7.94;100.00
9784;BME280;4931;44.874;-1.092;2023-03-01T10:50:40;101845.28;;;8.22;100.00
9784;BME280;4931;44.874;-1.092;2023-03-01T10:53:28;101848.16;;;8.15;100.00
9784;BME280;4931;44.874;-1.092;2023-03-01T10:58:24;101846.03;;;8.53;100.00
9784;BME280;4931;44.874;-1.092;2023-03-01T11:00:55;101839.84;;;8.45;100.00
9784;BME280;4931;44.874;-1.092;2023-03-01T11:03:27;101845.78;;;8.66;100.00
9784;BME280;4931;44.874;-1.092;2023-03-01T11:06:05;101836.53;;;8.31;100.00
9784;BME280;4931;44.874;-1.092;2023-03-01T11:08:34;101842.09;;;8.13;100.00
9784;BME280;4931;44.874;-1.092;2023-03-01T11:11:32;101841.13;;;8.31;100.00
9784;BME280;4931;44.874;-1.092;2023-03-01T11:14:30;101833.66;;;8.38;100.00
9784;BME280;4931;44.874;-1.092;2023-03-01T11:17:11;101828.97;;;8.74;100.00
9784;BME280;4931;44.874;-1.092;2023-03-01T11:19:38;101835.28;;;8.87;100.00
9784;BME280;4931;44.874;-1.092;2023-03-01T11:22:13;101831.88;;;8.56;100.00
9784;BME280;4931;44.874;-1.092;2023-03-01T11:27:18;101837.47;;;8.37;100.00
9784;BME280;4931;44.874;-1.092;2023-03-01T11:35:43;101818.56;;;9.00;100.00
9784;BME280;4931;44.874;-1.092;2023-03-01T11:38:27;101809.03;;;9.03;100.00
9784;BME280;4931;44.874;-1.092;2023-03-01T11:41:05;101803.06;;;9.06;100.00
9784;BME280;4931;44.874;-1.092;2023-03-01T11:43:59;101802.06;;;8.95;100.00
9784;BME280;4931;44.874;-1.092;2023-03-01T11:54:04;101789.22;;;8.84;100.00
9784;BME280;4931;44.874;-1.092;2023-03-01T11:56:37;101784.56;;;8.96;100.00
9784;BME280;4931;44.874;-1.092;2023-03-01T11:59:19;101787.72;;;8.64;100.00
9784;BME280;4931;44.874;-1.092;2023-03-01T12:01:54;101781.47;;;8.28;100.00
9784;BME280;4931;44.874;-1.092;2023-03-01T12:15:20;101749.63;;;9.32;96.83
9784;BME280;4931;44.874;-1.092;2023-03-01T12:18:11;101738.19;;;9.69;91.74
9784;BME280;4931;44.874;-1.092;2023-03-01T12:21:05;101740.31;;;10.01;93.79
9784;BME280;4931;44.874;-1.092;2023-03-01T12:26:32;101717.13;;;10.31;87.60
9784;BME280;4931;44.874;-1.092;2023-03-01T12:32:09;101707.47;;;10.45;85.18
9784;BME280;4931;44.874;-1.092;2023-03-01T12:37:27;101699.09;;;10.85;84.94
9784;BME280;4931;44.874;-1.092;2023-03-01T12:42:48;101699.72;;;10.92;78.87
9784;BME280;4931;44.874;-1.092;2023-03-01T12:45:39;101699.31;;;11.05;84.20
9784;BME280;4931;44.874;-1.092;2023-03-01T12:48:36;101695.75;;;11.05;84.04
9784;BME280;4931;44.874;-1.092;2023-03-01T12:51:08;101685.84;;;10.32;83.47
9784;BME280;4931;44.874;-1.092;2023-03-01T12:53:48;101698.25;;;10.12;89.79
9784;BME280;4931;44.874;-1.092;2023-03-01T12:56:25;101700.41;;;10.10;90.04
9784;BME280;4931;44.874;-1.092;2023-03-01T13:02:03;101696.19;;;9.46;96.09
9784;BME280;4931;44.874;-1.092;2023-03-01T13:10:53;101686.03;;;10.42;99.22
9784;BME280;4931;44.874;-1.092;2023-03-01T13:13:26;101687.63;;;9.99;95.15
9784;BME280;4931;44.874;-1.092;2023-03-01T13:15:53;101675.75;;;9.71;97.23
9784;BME280;4931;44.874;-1.092;2023-03-01T13:20:48;101675.72;;;10.10;100.00
9784;BME280;4931;44.874;-1.092;2023-03-01T13:28:51;101679.91;;;9.23;100.00
9784;BME280;4931;44.874;-1.092;2023-03-01T13:33:47;101671.38;;;9.36;100.00
9784;BME280;4931;44.874;-1.092;2023-03-01T13:41:54;101663.56;;;9.11;100.00
9784;BME280;4931;44.874;-1.092;2023-03-01T13:44:26;101659.41;;;9.08;100.00
9784;BME280;4931;44.874;-1.092;2023-03-01T13:46:57;101644.66;;;9.09;100.00
9784;BME280;4931;44.874;-1.092;2023-03-01T13:49:27;101646.25;;;9.05;100.00
9784;BME280;4931;44.874;-1.092;2023-03-01T13:51:54;101651.63;;;9.00;100.00
9784;BME280;4931;44.874;-1.092;2023-03-01T13:54:45;101640.72;;;8.71;100.00
9784;BME280;4931;44.874;-1.092;2023-03-01T13:57:22;101650.38;;;8.91;100.00
9784;BME280;4931;44.874;-1.092;2023-03-01T13:59:50;101646.53;;;8.75;100.00
9784;BME280;4931;44.874;-1.092;2023-03-01T14:02:16;101654.59;;;8.82;100.00
9784;BME280;4931;44.874;-1.092;2023-03-01T14:04:42;101642.47;;;8.77;100.00
9784;BME280;4931;44.874;-1.092;2023-03-01T14:09:42;101637.19;;;8.88;100.00
9784;BME280;4931;44.874;-1.092;2023-03-01T14:20:30;101637.50;;;8.34;100.00
9784;BME280;4931;44.874;-1.092;2023-03-01T14:22:59;101629.16;;;8.52;100.00
9784;BME280;4931;44.874;-1.092;2023-03-01T14:25:36;101634.56;;;8.64;100.00
9784;BME280;4931;44.874;-1.092;2023-03-01T14:28:17;101628.94;;;8.54;100.00
9784;BME280;4931;44.874;-1.092;2023-03-01T14:30:48;101625.84;;;8.50;100.00
9784;BME280;4931;44.874;-1.092;2023-03-01T14:33:29;101628.81;;;8.49;100.00
9784;BME280;4931;44.874;-1.092;2023-03-01T14:38:39;101629.50;;;8.44;100.00
9784;BME280;4931;44.874;-1.092;2023-03-01T14:41:08;101627.31;;;8.29;100.00
9784;BME280;4931;44.874;-1.092;2023-03-01T14:43:35;101621.66;;;8.19;100.00
9784;BME280;4931;44.874;-1.092;2023-03-01T14:46:02;101614.38;;;8.24;100.00
9784;BME280;4931;44.874;-1.092;2023-03-01T14:48:29;101626.63;;;8.22;100.00
9784;BME280;4931;44.874;-1.092;2023-03-01T14:50:55;101628.41;;;8.28;100.00
9784;BME280;4931;44.874;-1.092;2023-03-01T14:53:26;101629.31;;;8.34;100.00